Time;durP1;ratioP1;P1;durP2;ratioP2;P2;SDS_P1;SDS_P2;PMS_P1;PMS_P2;Temp;Humidity;BMP_temperature;BMP_pressure;BME280_temperature;BME280_humidity;BME280_pressure;Samples;Min_cycle;Max_cycle;Signal;HPM_P1;HPM_P2
2023/07/10 00:01:44;;;;;;;;;;;26.10;49.70;;;;;;5093369;28;20372;-58
2023/07/10 00:04:16;;;;;;;;;;;26.00;49.60;;;;;;5093268;28;20023;-58
2023/07/10 00:06:43;;;;;;;;;;;26.00;49.70;;;;;;5093372;28;20341;-58
2023/07/10 00:09:10;;;;;;;;;;;26.00;49.70;;;;;;5093051;28;19924;-59
2023/07/10 00:11:37;;;;;;;;;;;26.00;49.70;;;;;;5091265;28;19931;-58
2023/07/10 00:14:06;;;;;;;;;;;26.00;49.70;;;;;;5092439;28;20015;-58
2023/07/10 00:16:33;;;;;;;;;;;26.00;49.70;;;;;;5092570;28;20330;-58
2023/07/10 00:19:01;;;;;;;;;;;26.00;49.70;;;;;;5093046;28;20346;-58
2023/07/10 00:21:28;;;;;;;;;;;26.00;49.80;;;;;;5092052;28;19931;-58
2023/07/10 00:23:54;;;;;;;;;;;26.00;49.80;;;;;;5093409;28;19955;-58
2023/07/10 00:26:23;;;;;;;;;;;26.00;49.90;;;;;;5093531;28;19924;-59
2023/07/10 00:28:51;;;;;;;;;;;26.00;49.80;;;;;;5093050;28;19928;-58
2023/07/10 00:31:18;;;;;;;;;;;25.90;49.80;;;;;;5091776;28;19981;-58
2023/07/10 00:33:47;;;;;;;;;;;26.00;49.90;;;;;;5091223;28;19924;-58
2023/07/10 00:36:29;;;;;;;;;;;25.90;49.80;;;;;;5092386;28;19925;-59
2023/07/10 00:38:56;;;;;;;;;;;25.90;49.80;;;;;;5092841;28;20288;-58
2023/07/10 00:41:25;;;;;;;;;;;25.90;49.90;;;;;;5091462;28;19970;-58
2023/07/10 00:43:58;;;;;;;;;;;25.90;49.90;;;;;;5091816;28;19924;-59
2023/07/10 00:46:29;;;;;;;;;;;25.90;49.90;;;;;;5091006;28;20030;-57
2023/07/10 00:48:58;;;;;;;;;;;25.90;49.90;;;;;;5092491;28;20320;-56
2023/07/10 00:51:34;;;;;;;;;;;25.90;49.90;;;;;;5093176;28;19927;-56
2023/07/10 00:54:01;;;;;;;;;;;25.90;49.90;;;;;;5094062;28;19924;-57
2023/07/10 00:56:31;;;;;;;;;;;25.90;49.90;;;;;;5095440;28;20023;-57
2023/07/10 00:59:14;;;;;;;;;;;25.90;49.90;;;;;;5096324;28;19959;-57
2023/07/10 01:02:01;;;;;;;;;;;25.90;50.00;;;;;;5095996;28;20019;-57
2023/07/10 01:04:28;;;;;;;;;;;25.90;50.00;;;;;;5095094;28;20022;-57
2023/07/10 01:06:55;;;;;;;;;;;25.90;50.00;;;;;;5095468;28;19978;-57
2023/07/10 01:09:22;;;;;;;;;;;25.90;50.00;;;;;;5095022;28;19924;-57
2023/07/10 01:11:49;;;;;;;;;;;25.90;50.00;;;;;;5094550;28;20479;-57
2023/07/10 01:14:17;;;;;;;;;;;25.90;50.00;;;;;;5095316;28;20333;-57
2023/07/10 01:16:44;;;;;;;;;;;25.90;50.00;;;;;;5095608;28;19985;-57
2023/07/10 01:19:19;;;;;;;;;;;25.90;50.00;;;;;;5095606;28;19974;-57
2023/07/10 01:21:46;;;;;;;;;;;25.90;50.00;;;;;;5095695;28;20410;-57
2023/07/10 01:24:13;;;;;;;;;;;25.90;50.00;;;;;;5094839;28;20420;-57
2023/07/10 01:26:40;;;;;;;;;;;25.90;50.00;;;;;;5095576;28;19924;-57
2023/07/10 01:29:16;;;;;;;;;;;25.90;50.00;;;;;;5095876;28;20429;-56
2023/07/10 01:31:44;;;;;;;;;;;25.90;50.00;;;;;;5095589;28;20348;-57
2023/07/10 01:34:12;;;;;;;;;;;25.90;50.00;;;;;;5094145;28;20001;-57
2023/07/10 01:36:40;;;;;;;;;;;25.90;50.00;;;;;;5096083;28;20315;-57
2023/07/10 01:39:27;;;;;;;;;;;25.90;50.00;;;;;;5095158;28;19978;-57
2023/07/10 01:41:54;;;;;;;;;;;25.90;50.00;;;;;;5093870;28;19924;-57
2023/07/10 01:44:26;;;;;;;;;;;25.90;50.00;;;;;;5094761;28;19978;-57
2023/07/10 01:46:53;;;;;;;;;;;25.90;50.00;;;;;;5095114;28;19924;-56
2023/07/10 01:49:23;;;;;;;;;;;25.90;50.00;;;;;;5093212;28;19931;-57
2023/07/10 01:51:51;;;;;;;;;;;25.90;50.00;;;;;;5095171;28;19967;-57
2023/07/10 01:54:18;;;;;;;;;;;25.90;50.00;;;;;;5095070;28;19971;-57
2023/07/10 01:56:45;;;;;;;;;;;25.90;50.10;;;;;;5094706;28;20384;-57
2023/07/10 01:59:12;;;;;;;;;;;25.90;50.00;;;;;;5094467;28;19924;-57
2023/07/10 02:01:39;;;;;;;;;;;25.90;50.00;;;;;;5095782;28;19928;-57
2023/07/10 02:04:08;;;;;;;;;;;25.80;50.00;;;;;;5092424;28;19931;-57
2023/07/10 02:06:36;;;;;;;;;;;25.90;50.10;;;;;;5094267;28;19924;-57
2023/07/10 02:09:04;;;;;;;;;;;25.80;50.00;;;;;;5094428;28;19932;-57
2023/07/10 02:11:34;;;;;;;;;;;25.80;50.00;;;;;;5093965;28;19924;-57
2023/07/10 02:14:02;;;;;;;;;;;25.80;50.00;;;;;;5094727;28;20326;-57
2023/07/10 02:16:29;;;;;;;;;;;25.80;50.10;;;;;;5094524;28;20023;-57
2023/07/10 02:18:56;;;;;;;;;;;25.80;50.00;;;;;;5093844;28;19963;-57
2023/07/10 02:21:23;;;;;;;;;;;25.80;50.10;;;;;;5094159;28;19978;-57
2023/07/10 02:23:50;;;;;;;;;;;25.80;50.10;;;;;;5093696;28;19924;-57
2023/07/10 02:26:17;;;;;;;;;;;25.80;50.10;;;;;;5094501;28;19959;-57
2023/07/10 02:28:44;;;;;;;;;;;25.80;50.10;;;;;;5094340;28;19924;-57
2023/07/10 02:31:11;;;;;;;;;;;25.70;50.10;;;;;;5093769;28;20086;-57
2023/07/10 02:33:38;;;;;;;;;;;25.80;50.20;;;;;;5093601;28;19928;-57
2023/07/10 02:36:05;;;;;;;;;;;25.70;50.10;;;;;;5094291;28;19947;-57
2023/07/10 02:38:33;;;;;;;;;;;25.80;50.20;;;;;;5094162;28;19931;-57
2023/07/10 02:41:00;;;;;;;;;;;25.80;50.20;;;;;;5094557;28;19928;-57
2023/07/10 02:43:27;;;;;;;;;;;25.80;50.20;;;;;;5076039;28;19986;-57
2023/07/10 02:45:54;;;;;;;;;;;25.70;50.10;;;;;;5074509;28;20318;-56
2023/07/10 02:48:21;;;;;;;;;;;25.70;50.10;;;;;;5074153;28;19994;-57
2023/07/10 02:50:48;;;;;;;;;;;25.70;50.10;;;;;;5074423;28;19924;-57
2023/07/10 02:53:15;;;;;;;;;;;25.80;50.20;;;;;;5074437;28;19931;-57
2023/07/10 02:55:42;;;;;;;;;;;25.70;50.10;;;;;;5073948;28;19924;-57
2023/07/10 02:58:09;;;;;;;;;;;25.70;50.10;;;;;;5074164;28;19929;-57
2023/07/10 03:00:36;;;;;;;;;;;25.70;50.10;;;;;;5073924;28;19931;-57
2023/07/10 03:03:03;;;;;;;;;;;25.70;50.10;;;;;;5073949;28;19977;-57
2023/07/10 03:05:31;;;;;;;;;;;25.70;50.10;;;;;;5073558;28;19925;-56
2023/07/10 03:07:58;;;;;;;;;;;25.70;50.10;;;;;;5074011;28;20372;-57
2023/07/10 03:10:25;;;;;;;;;;;25.70;50.10;;;;;;5073722;28;19964;-57
2023/07/10 03:12:51;;;;;;;;;;;25.70;50.10;;;;;;5073960;28;20399;-57
2023/07/10 03:15:18;;;;;;;;;;;25.70;50.10;;;;;;5073327;28;19947;-57
2023/07/10 03:17:45;;;;;;;;;;;25.70;50.10;;;;;;5072859;28;20334;-57
2023/07/10 03:20:12;;;;;;;;;;;25.70;50.10;;;;;;5072868;28;19924;-57
2023/07/10 03:22:39;;;;;;;;;;;25.70;50.10;;;;;;5072521;28;20418;-57
2023/07/10 03:25:07;;;;;;;;;;;25.70;50.10;;;;;;5073199;28;19969;-57
2023/07/10 03:27:34;;;;;;;;;;;25.80;50.20;;;;;;5072725;28;19931;-57
2023/07/10 03:30:01;;;;;;;;;;;25.70;50.10;;;;;;5079540;28;20010;-57
2023/07/10 03:32:27;;;;;;;;;;;25.80;50.20;;;;;;5106860;28;20318;-57
2023/07/10 03:34:57;;;;;;;;;;;25.80;50.20;;;;;;5092182;28;19971;-57
2023/07/10 03:37:24;;;;;;;;;;;25.80;50.20;;;;;;5093268;28;19923;-57
2023/07/10 03:39:51;;;;;;;;;;;25.80;50.20;;;;;;5092618;28;19931;-57
2023/07/10 03:42:18;;;;;;;;;;;25.80;50.10;;;;;;5099080;28;20309;-56
2023/07/10 03:44:46;;;;;;;;;;;25.80;50.10;;;;;;5092041;28;20395;-57
2023/07/10 03:47:12;;;;;;;;;;;25.80;50.00;;;;;;5093036;28;20376;-56
2023/07/10 03:49:40;;;;;;;;;;;25.80;50.00;;;;;;5092111;28;19928;-56
2023/07/10 03:52:07;;;;;;;;;;;25.90;50.00;;;;;;5092349;28;19970;-56
2023/07/10 03:54:34;;;;;;;;;;;25.90;50.00;;;;;;5094616;28;19993;-56
2023/07/10 03:57:01;;;;;;;;;;;25.90;49.90;;;;;;5090272;28;19928;-56
2023/07/10 03:59:28;;;;;;;;;;;25.90;49.90;;;;;;5076316;28;19928;-57
2023/07/10 04:01:55;;;;;;;;;;;25.90;49.80;;;;;;5082483;28;19924;-56
2023/07/10 04:04:22;;;;;;;;;;;25.90;49.80;;;;;;5077629;28;20319;-57
2023/07/10 04:06:49;;;;;;;;;;;26.00;49.90;;;;;;5079876;28;19928;-57
2023/07/10 04:09:18;;;;;;;;;;;26.00;49.80;;;;;;5087645;28;19939;-57
2023/07/10 04:11:45;;;;;;;;;;;26.00;49.80;;;;;;5084940;28;19932;-56
2023/07/10 04:14:12;;;;;;;;;;;26.00;49.70;;;;;;5095974;28;19924;-57
2023/07/10 04:16:39;;;;;;;;;;;26.00;49.70;;;;;;5089090;28;19974;-56
2023/07/10 04:19:07;;;;;;;;;;;26.10;49.70;;;;;;5092476;28;19930;-57
2023/07/10 04:21:34;;;;;;;;;;;26.10;49.70;;;;;;5092357;28;19967;-57
2023/07/10 04:24:04;;;;;;;;;;;26.10;49.70;;;;;;5092114;28;19928;-56
2023/07/10 04:26:32;;;;;;;;;;;26.10;49.60;;;;;;5093934;28;19947;-56
2023/07/10 04:29:01;;;;;;;;;;;26.10;49.60;;;;;;5093367;28;19963;-57
2023/07/10 04:31:28;;;;;;;;;;;26.10;49.60;;;;;;5090952;28;19928;-57
2023/07/10 04:33:56;;;;;;;;;;;26.10;49.50;;;;;;5093688;28;19938;-57
2023/07/10 04:36:24;;;;;;;;;;;26.10;49.40;;;;;;5093846;28;19970;-56
2023/07/10 04:38:51;;;;;;;;;;;26.10;49.60;;;;;;5096286;28;19928;-57
2023/07/10 04:41:21;;;;;;;;;;;26.00;49.70;;;;;;5115963;28;20010;-57
2023/07/10 04:43:48;;;;;;;;;;;25.90;49.90;;;;;;5097999;28;20331;-56
2023/07/10 04:46:16;;;;;;;;;;;25.70;50.10;;;;;;5091026;28;20002;-57
2023/07/10 04:48:43;;;;;;;;;;;25.50;50.70;;;;;;5101822;28;19977;-58
2023/07/10 04:51:13;;;;;;;;;;;25.30;51.00;;;;;;5095135;28;19928;-58
2023/07/10 04:53:40;;;;;;;;;;;25.00;50.70;;;;;;5089769;28;20383;-59
2023/07/10 04:56:09;;;;;;;;;;;24.70;50.20;;;;;;5095910;28;19924;-57
2023/07/10 04:58:53;;;;;;;;;;;24.30;50.00;;;;;;5083831;28;20201;-59
2023/07/10 05:01:22;;;;;;;;;;;23.90;49.90;;;;;;5089742;28;20330;-59
2023/07/10 05:03:49;;;;;;;;;;;23.60;49.90;;;;;;5089708;28;19970;-58
2023/07/10 05:06:16;;;;;;;;;;;23.20;50.20;;;;;;5083853;28;20392;-58
2023/07/10 05:08:43;;;;;;;;;;;22.80;50.50;;;;;;5088002;28;19977;-58
2023/07/10 05:11:10;;;;;;;;;;;22.50;50.50;;;;;;5096263;28;20627;-58
2023/07/10 05:13:37;;;;;;;;;;;22.20;51.00;;;;;;5077229;28;19925;-59
2023/07/10 05:16:04;;;;;;;;;;;21.90;51.70;;;;;;5078209;28;19924;-59
2023/07/10 05:18:32;;;;;;;;;;;21.70;51.80;;;;;;5081925;28;20392;-60
2023/07/10 05:20:59;;;;;;;;;;;21.60;52.30;;;;;;5079741;28;19935;-62
2023/07/10 05:23:27;;;;;;;;;;;21.40;52.90;;;;;;5082642;28;20356;-61
2023/07/10 05:25:56;;;;;;;;;;;21.30;53.60;;;;;;5078895;28;20407;-59
2023/07/10 05:28:24;;;;;;;;;;;21.20;53.80;;;;;;5081070;28;19933;-59
2023/07/10 05:30:51;;;;;;;;;;;21.10;54.20;;;;;;5085998;28;20368;-56
2023/07/10 05:33:18;;;;;;;;;;;21.00;54.90;;;;;;5083968;28;20044;-56
2023/07/10 05:35:51;;;;;;;;;;;20.90;55.10;;;;;;5078606;28;19924;-58
2023/07/10 05:38:19;;;;;;;;;;;20.90;56.00;;;;;;5088942;28;19925;-58
2023/07/10 05:40:46;;;;;;;;;;;20.90;56.10;;;;;;5077712;28;20347;-59
2023/07/10 05:43:12;;;;;;;;;;;20.90;56.50;;;;;;5086323;28;19931;-63
2023/07/10 05:45:39;;;;;;;;;;;20.90;56.80;;;;;;5086701;28;19978;-63
2023/07/10 05:48:07;;;;;;;;;;;20.90;56.80;;;;;;5074684;28;19933;-64
2023/07/10 05:50:34;;;;;;;;;;;20.90;57.00;;;;;;5085712;28;19924;-61
2023/07/10 05:53:01;;;;;;;;;;;20.90;57.50;;;;;;5075504;28;19982;-63
2023/07/10 05:55:28;;;;;;;;;;;21.00;58.00;;;;;;5079713;28;19972;-62
2023/07/10 05:57:55;;;;;;;;;;;21.00;58.40;;;;;;5085491;28;19977;-61
2023/07/10 06:00:23;;;;;;;;;;;21.00;59.00;;;;;;5078555;28;20319;-62
2023/07/10 06:02:50;;;;;;;;;;;21.10;58.60;;;;;;5081724;28;20335;-63
2023/07/10 06:05:17;;;;;;;;;;;21.10;59.10;;;;;;5071181;28;20011;-63
2023/07/10 06:07:44;;;;;;;;;;;21.10;59.20;;;;;;5078476;28;19932;-63
2023/07/10 06:10:11;;;;;;;;;;;21.20;59.40;;;;;;5084077;28;19929;-64
2023/07/10 06:12:41;;;;;;;;;;;21.20;59.30;;;;;;5079249;28;19977;-63
2023/07/10 06:15:08;;;;;;;;;;;21.20;59.50;;;;;;5080931;28;19924;-63
2023/07/10 06:17:35;;;;;;;;;;;21.30;59.50;;;;;;5080917;28;19929;-63
2023/07/10 06:20:03;;;;;;;;;;;21.40;59.60;;;;;;5077001;28;19925;-63
2023/07/10 06:22:30;;;;;;;;;;;21.40;59.70;;;;;;5080373;28;19977;-63
2023/07/10 06:24:57;;;;;;;;;;;21.40;60.00;;;;;;5079764;28;20254;-63
2023/07/10 06:27:24;;;;;;;;;;;21.40;60.30;;;;;;5073865;28;19928;-64
2023/07/10 06:29:52;;;;;;;;;;;21.40;60.00;;;;;;5078604;28;19932;-63
2023/07/10 06:32:19;;;;;;;;;;;21.50;61.20;;;;;;5077685;28;20031;-62
2023/07/10 06:34:46;;;;;;;;;;;21.60;61.40;;;;;;5079514;28;19931;-62
2023/07/10 06:37:14;;;;;;;;;;;21.60;61.60;;;;;;5074790;28;19975;-62
2023/07/10 06:39:41;;;;;;;;;;;21.60;61.20;;;;;;5081605;28;19943;-61
2023/07/10 06:42:08;;;;;;;;;;;21.70;61.40;;;;;;5074815;28;20384;-60
2023/07/10 06:44:35;;;;;;;;;;;21.70;61.60;;;;;;5075575;28;19950;-61
2023/07/10 06:47:02;;;;;;;;;;;21.70;61.60;;;;;;5074348;28;19972;-61
2023/07/10 06:49:29;;;;;;;;;;;21.80;61.40;;;;;;5078717;28;19986;-62
2023/07/10 06:51:56;;;;;;;;;;;21.90;61.80;;;;;;5072976;28;19990;-61
2023/07/10 06:54:23;;;;;;;;;;;21.90;61.30;;;;;;5079390;28;19968;-61
2023/07/10 06:56:50;;;;;;;;;;;21.90;61.40;;;;;;5080500;28;19928;-61
2023/07/10 06:59:21;;;;;;;;;;;21.90;61.90;;;;;;5078140;28;20335;-59
2023/07/10 07:01:54;;;;;;;;;;;21.90;61.60;;;;;;5077163;28;19924;-57
2023/07/10 07:04:21;;;;;;;;;;;22.00;61.50;;;;;;5066270;28;19925;-59
2023/07/10 07:06:49;;;;;;;;;;;22.00;61.30;;;;;;5077244;28;20346;-61
2023/07/10 07:09:16;;;;;;;;;;;22.00;61.30;;;;;;5080605;28;19928;-61
2023/07/10 07:11:43;;;;;;;;;;;22.00;61.30;;;;;;5076804;28;20468;-61
2023/07/10 07:14:10;;;;;;;;;;;22.00;61.00;;;;;;5078164;28;20069;-61
2023/07/10 07:16:37;;;;;;;;;;;22.00;61.00;;;;;;5078704;28;19954;-56
2023/07/10 07:19:04;;;;;;;;;;;22.00;60.90;;;;;;5072442;28;20292;-60
2023/07/10 07:21:38;;;;;;;;;;;21.90;60.80;;;;;;5073495;28;19932;-61
2023/07/10 07:24:05;;;;;;;;;;;21.90;60.80;;;;;;5077239;28;19932;-61
2023/07/10 07:26:32;;;;;;;;;;;21.90;60.90;;;;;;5077554;28;19932;-61
2023/07/10 07:28:59;;;;;;;;;;;21.90;61.00;;;;;;5074013;28;20044;-61
2023/07/10 07:31:26;;;;;;;;;;;21.90;61.30;;;;;;5078558;28;19964;-62
2023/07/10 07:33:54;;;;;;;;;;;21.90;60.90;;;;;;5080994;28;19924;-61
2023/07/10 07:36:22;;;;;;;;;;;21.90;61.30;;;;;;5072874;28;20342;-62
2023/07/10 07:38:49;;;;;;;;;;;21.90;60.90;;;;;;5080214;28;20423;-60
2023/07/10 07:41:16;;;;;;;;;;;21.90;61.10;;;;;;5078141;28;19931;-60
2023/07/10 07:43:43;;;;;;;;;;;21.90;60.90;;;;;;5081131;28;19924;-60
2023/07/10 07:46:11;;;;;;;;;;;21.90;61.30;;;;;;5079137;28;20272;-59
2023/07/10 07:48:39;;;;;;;;;;;21.90;61.10;;;;;;5081349;28;19925;-57
2023/07/10 07:51:07;;;;;;;;;;;21.90;60.80;;;;;;5066546;28;20020;-59
2023/07/10 07:53:35;;;;;;;;;;;21.90;61.30;;;;;;5078107;28;20330;-60
2023/07/10 07:56:03;;;;;;;;;;;21.80;61.20;;;;;;5078610;28;19950;-60
2023/07/10 07:58:31;;;;;;;;;;;21.90;61.30;;;;;;5080394;28;20407;-62
2023/07/10 08:00:59;;;;;;;;;;;21.90;60.40;;;;;;5082934;28;20004;-61
2023/07/10 08:03:26;;;;;;;;;;;21.90;60.50;;;;;;5082423;28;19969;-61
2023/07/10 08:05:54;;;;;;;;;;;21.90;60.90;;;;;;5085704;28;19982;-61
2023/07/10 08:08:22;;;;;;;;;;;21.90;61.10;;;;;;5079963;28;19924;-60
2023/07/10 08:10:50;;;;;;;;;;;21.90;60.90;;;;;;5081373;28;19924;-61
2023/07/10 08:13:18;;;;;;;;;;;22.00;61.40;;;;;;5085652;28;20669;-61
2023/07/10 08:15:45;;;;;;;;;;;22.00;61.00;;;;;;5085309;28;19925;-62
2023/07/10 08:18:12;;;;;;;;;;;22.00;60.60;;;;;;5097118;28;19928;-61
2023/07/10 08:20:39;;;;;;;;;;;22.10;60.60;;;;;;5078664;28;20027;-60
2023/07/10 08:23:06;;;;;;;;;;;22.10;60.70;;;;;;5076698;28;19977;-61
2023/07/10 08:25:33;;;;;;;;;;;22.20;60.90;;;;;;5091706;28;19924;-59
2023/07/10 08:28:00;;;;;;;;;;;22.20;60.60;;;;;;5082654;28;19928;-59
2023/07/10 08:30:28;;;;;;;;;;;22.20;60.20;;;;;;5082437;28;19928;-60
2023/07/10 08:32:55;;;;;;;;;;;22.20;60.10;;;;;;5079013;28;19931;-61
2023/07/10 08:35:22;;;;;;;;;;;22.20;60.00;;;;;;5084825;28;19928;-61
2023/07/10 08:37:50;;;;;;;;;;;22.20;60.00;;;;;;5079283;28;19932;-61
2023/07/10 08:40:26;;;;;;;;;;;22.20;59.80;;;;;;5086257;28;19924;-60
2023/07/10 08:42:53;;;;;;;;;;;22.20;59.50;;;;;;5082081;28;20386;-61
2023/07/10 08:45:31;;;;;;;;;;;22.20;59.70;;;;;;5083521;28;20269;-61
2023/07/10 08:48:04;;;;;;;;;;;22.10;59.80;;;;;;5078615;28;19924;-60
2023/07/10 08:50:31;;;;;;;;;;;22.10;59.60;;;;;;5084827;28;20408;-60
2023/07/10 08:53:03;;;;;;;;;;;22.10;59.60;;;;;;5084768;28;19925;-61
2023/07/10 08:55:38;;;;;;;;;;;22.10;59.90;;;;;;5077905;28;19971;-60
2023/07/10 08:58:08;;;;;;;;;;;22.10;59.80;;;;;;5081152;28;19971;-60
2023/07/10 09:00:39;;;;;;;;;;;22.10;59.80;;;;;;5090459;28;19986;-59
2023/07/10 09:03:13;;;;;;;;;;;22.10;59.50;;;;;;5088987;28;19978;-61
2023/07/10 09:05:49;;;;;;;;;;;22.00;59.10;;;;;;5078973;28;20011;-61
2023/07/10 09:08:17;;;;;;;;;;;22.10;59.10;;;;;;5080688;28;19985;-60
2023/07/10 09:10:49;;;;;;;;;;;22.00;59.50;;;;;;5092688;28;19924;-59
2023/07/10 09:13:18;;;;;;;;;;;22.00;59.10;;;;;;5073969;28;19924;-60
2023/07/10 09:15:53;;;;;;;;;;;22.00;58.80;;;;;;5073332;28;20335;-60
2023/07/10 09:18:23;;;;;;;;;;;22.00;58.70;;;;;;5080339;28;19954;-61
2023/07/10 09:20:52;;;;;;;;;;;22.00;58.60;;;;;;5081649;28;19951;-60
2023/07/10 09:23:24;;;;;;;;;;;22.00;58.20;;;;;;5089713;28;19932;-60
2023/07/10 09:25:55;;;;;;;;;;;22.00;58.40;;;;;;5078761;28;20425;-58
2023/07/10 09:28:24;;;;;;;;;;;22.00;58.10;;;;;;5087394;28;19963;-60
2023/07/10 09:30:56;;;;;;;;;;;22.00;58.50;;;;;;5082163;28;19971;-58
2023/07/10 09:33:35;;;;;;;;;;;22.00;58.10;;;;;;5075077;28;19943;-60
2023/07/10 09:36:02;;;;;;;;;;;22.00;58.50;;;;;;5084417;28;20015;-62
2023/07/10 09:38:30;;;;;;;;;;;22.00;58.50;;;;;;5081085;28;19947;-61
2023/07/10 09:40:58;;;;;;;;;;;22.00;58.10;;;;;;5080545;28;19923;-57
2023/07/10 09:43:25;;;;;;;;;;;22.00;58.40;;;;;;5075743;28;19955;-57
2023/07/10 09:45:56;;;;;;;;;;;21.90;58.70;;;;;;5078989;28;19964;-58
2023/07/10 09:48:36;;;;;;;;;;;21.90;58.60;;;;;;5078360;28;19998;-60
2023/07/10 09:51:05;;;;;;;;;;;21.90;58.80;;;;;;5079512;28;19942;-61
2023/07/10 09:53:34;;;;;;;;;;;21.90;58.80;;;;;;5078143;28;20350;-60
2023/07/10 09:56:01;;;;;;;;;;;21.90;58.80;;;;;;5076015;28;20396;-59
2023/07/10 09:58:29;;;;;;;;;;;21.90;58.50;;;;;;5077282;28;20373;-58
2023/07/10 10:01:04;;;;;;;;;;;21.90;58.00;;;;;;5090199;28;19988;-61
2023/07/10 10:03:33;;;;;;;;;;;21.90;58.20;;;;;;5083454;28;20456;-61
2023/07/10 10:06:01;;;;;;;;;;;21.90;57.90;;;;;;5081014;28;19932;-61
2023/07/10 10:08:31;;;;;;;;;;;21.90;57.80;;;;;;5078878;28;19950;-61
2023/07/10 10:11:05;;;;;;;;;;;21.90;57.50;;;;;;5079730;28;19964;-59
2023/07/10 10:13:35;;;;;;;;;;;21.80;57.50;;;;;;5076938;28;19932;-61
2023/07/10 10:16:14;;;;;;;;;;;21.80;57.40;;;;;;5079036;28;19928;-62
2023/07/10 10:18:48;;;;;;;;;;;21.80;57.60;;;;;;5076605;28;19931;-60
2023/07/10 10:21:17;;;;;;;;;;;21.80;57.50;;;;;;5080550;28;20023;-60
2023/07/10 10:23:46;;;;;;;;;;;21.80;57.30;;;;;;5076661;28;20385;-60
2023/07/10 10:26:25;;;;;;;;;;;21.70;57.30;;;;;;5076156;28;19960;-60
2023/07/10 10:28:59;;;;;;;;;;;21.70;57.40;;;;;;5076365;28;20027;-61
2023/07/10 10:31:30;;;;;;;;;;;21.70;57.20;;;;;;5080135;28;19947;-61
2023/07/10 10:34:01;;;;;;;;;;;21.70;56.90;;;;;;5085335;28;19925;-61
2023/07/10 10:36:48;;;;;;;;;;;21.70;57.40;;;;;;5083141;28;19975;-61
2023/07/10 10:39:23;;;;;;;;;;;21.70;57.60;;;;;;5080620;28;20011;-61
2023/07/10 10:41:59;;;;;;;;;;;21.70;57.30;;;;;;5079604;28;20327;-62
2023/07/10 10:44:34;;;;;;;;;;;21.60;57.10;;;;;;5077083;28;19932;-59
2023/07/10 10:47:23;;;;;;;;;;;21.60;57.60;;;;;;5083237;28;19925;-61
2023/07/10 10:49:58;;;;;;;;;;;21.60;57.50;;;;;;5091825;28;19977;-61
2023/07/10 10:52:34;;;;;;;;;;;21.60;57.40;;;;;;5081796;28;19925;-61
2023/07/10 10:55:18;;;;;;;;;;;21.70;57.30;;;;;;5076101;28;19972;-61
2023/07/10 10:58:06;;;;;;;;;;;21.70;57.50;;;;;;5085453;28;20008;-60
2023/07/10 11:00:51;;;;;;;;;;;21.70;57.60;;;;;;5081565;28;19959;-59
2023/07/10 11:03:25;;;;;;;;;;;21.70;57.60;;;;;;5095313;28;19971;-60
2023/07/10 11:05:53;;;;;;;;;;;21.70;57.50;;;;;;5086778;28;19934;-61
2023/07/10 11:08:21;;;;;;;;;;;21.70;57.50;;;;;;5088189;28;19974;-62
2023/07/10 11:10:55;;;;;;;;;;;21.70;57.90;;;;;;5077752;28;19994;-62
2023/07/10 11:13:33;;;;;;;;;;;21.80;58.10;;;;;;5080319;28;20027;-63
2023/07/10 11:16:04;;;;;;;;;;;21.80;58.10;;;;;;5078430;28;21403;-65
2023/07/10 11:18:32;;;;;;;;;;;21.80;58.20;;;;;;5078785;28;20333;-63
2023/07/10 11:21:01;;;;;;;;;;;21.80;58.40;;;;;;5076674;28;20385;-64
2023/07/10 11:23:47;;;;;;;;;;;21.80;58.30;;;;;;5077452;28;19925;-63
2023/07/10 11:26:16;;;;;;;;;;;21.90;58.40;;;;;;5075239;28;19936;-63
2023/07/10 11:28:52;;;;;;;;;;;21.90;58.40;;;;;;5081465;28;19928;-63
2023/07/10 11:31:35;;;;;;;;;;;22.00;58.40;;;;;;5079303;28;19928;-63
2023/07/10 11:34:22;;;;;;;;;;;22.00;58.70;;;;;;5079222;28;20299;-62
2023/07/10 11:36:50;;;;;;;;;;;22.00;58.40;;;;;;5080060;28;19924;-62
2023/07/10 11:39:19;;;;;;;;;;;22.10;58.40;;;;;;5082429;28;20019;-62
2023/07/10 11:42:06;;;;;;;;;;;22.20;58.70;;;;;;5076502;28;20388;-61
2023/07/10 11:44:40;;;;;;;;;;;22.20;58.60;;;;;;5076819;28;20007;-62
2023/07/10 11:47:17;;;;;;;;;;;22.20;58.60;;;;;;5076218;28;19939;-62
2023/07/10 11:49:46;;;;;;;;;;;22.20;58.50;;;;;;5084804;28;20388;-62
2023/07/10 11:52:26;;;;;;;;;;;22.30;58.50;;;;;;5089055;28;20334;-62
2023/07/10 11:55:01;;;;;;;;;;;22.30;58.60;;;;;;5078303;28;19978;-62
2023/07/10 11:57:29;;;;;;;;;;;22.30;58.40;;;;;;5078425;28;19924;-62
2023/07/10 12:00:00;;;;;;;;;;;22.30;58.00;;;;;;5090364;28;19970;-62
2023/07/10 12:02:45;;;;;;;;;;;22.30;58.20;;;;;;5079140;28;19931;-62
2023/07/10 12:05:17;;;;;;;;;;;22.30;58.50;;;;;;5080538;28;19927;-62
2023/07/10 12:07:55;;;;;;;;;;;22.40;58.30;;;;;;5078005;28;19974;-62
2023/07/10 12:10:27;;;;;;;;;;;22.40;58.50;;;;;;5082218;28;19931;-62
2023/07/10 12:12:56;;;;;;;;;;;22.40;58.50;;;;;;5077658;28;19981;-62
2023/07/10 12:15:23;;;;;;;;;;;22.40;58.20;;;;;;5078659;28;20442;-61
2023/07/10 12:17:52;;;;;;;;;;;22.40;59.00;;;;;;5077322;28;19999;-61
2023/07/10 12:20:25;;;;;;;;;;;22.40;58.30;;;;;;5079115;28;19932;-59
2023/07/10 12:22:53;;;;;;;;;;;22.40;58.30;;;;;;5072755;28;19980;-59
2023/07/10 12:25:21;;;;;;;;;;;22.50;58.30;;;;;;5071494;28;19968;-56
2023/07/10 12:27:48;;;;;;;;;;;22.50;58.40;;;;;;5079505;28;20345;-57
2023/07/10 12:30:35;;;;;;;;;;;22.50;58.20;;;;;;5076458;28;20345;-57
2023/07/10 12:33:03;;;;;;;;;;;22.50;58.20;;;;;;5076406;28;19986;-57
2023/07/10 12:35:31;;;;;;;;;;;22.50;58.20;;;;;;5081729;28;20402;-57
2023/07/10 12:38:02;;;;;;;;;;;22.50;58.60;;;;;;5084125;28;19977;-57
2023/07/10 12:40:30;;;;;;;;;;;22.50;58.00;;;;;;5081974;28;20341;-57
2023/07/10 12:43:10;;;;;;;;;;;22.50;58.00;;;;;;5075686;28;19925;-55
2023/07/10 12:45:39;;;;;;;;;;;22.50;57.90;;;;;;5074608;28;19925;-56
2023/07/10 12:48:14;;;;;;;;;;;22.50;57.80;;;;;;5071586;28;20326;-56
2023/07/10 12:50:50;;;;;;;;;;;22.50;57.70;;;;;;5079606;28;20395;-57
2023/07/10 12:53:20;;;;;;;;;;;22.50;57.90;;;;;;5077897;28;19970;-56
2023/07/10 12:55:50;;;;;;;;;;;22.50;57.90;;;;;;5077394;28;20358;-57
2023/07/10 12:58:34;;;;;;;;;;;22.50;57.70;;;;;;5081051;28;19993;-55
2023/07/10 13:01:14;;;;;;;;;;;22.50;57.60;;;;;;5076952;28;19924;-56
2023/07/10 13:03:42;;;;;;;;;;;22.50;57.60;;;;;;5081385;28;19963;-56
2023/07/10 13:06:21;;;;;;;;;;;22.50;57.60;;;;;;5086347;28;19936;-58
2023/07/10 13:08:48;;;;;;;;;;;22.50;57.60;;;;;;5082201;28;19933;-57
2023/07/10 13:11:19;;;;;;;;;;;22.40;57.50;;;;;;5082702;28;19929;-59
2023/07/10 13:14:07;;;;;;;;;;;22.40;57.70;;;;;;5075797;28;19928;-56
2023/07/10 13:16:42;;;;;;;;;;;22.40;57.60;;;;;;5080014;28;19936;-59
2023/07/10 13:19:10;;;;;;;;;;;22.40;57.90;;;;;;5078768;28;19928;-58
2023/07/10 13:21:36;;;;;;;;;;;22.40;57.80;;;;;;5083643;28;19974;-59
2023/07/10 13:24:04;;;;;;;;;;;22.40;57.80;;;;;;5075633;28;20258;-60
2023/07/10 13:26:31;;;;;;;;;;;22.40;57.70;;;;;;5082373;28;19932;-59
2023/07/10 13:28:58;;;;;;;;;;;22.40;57.60;;;;;;5084089;28;19974;-60
2023/07/10 13:31:28;;;;;;;;;;;22.40;57.60;;;;;;5087126;28;20265;-59
2023/07/10 13:33:55;;;;;;;;;;;22.40;57.50;;;;;;5073911;28;20011;-60
2023/07/10 13:36:24;;;;;;;;;;;22.40;57.50;;;;;;5072400;28;19974;-59
2023/07/10 13:38:51;;;;;;;;;;;22.40;57.70;;;;;;5076199;28;20024;-59
2023/07/10 13:41:20;;;;;;;;;;;22.50;57.50;;;;;;5082182;28;19985;-60
2023/07/10 13:43:47;;;;;;;;;;;22.40;57.20;;;;;;5094111;28;19979;-59
2023/07/10 13:46:20;;;;;;;;;;;22.40;57.80;;;;;;5076718;28;19939;-58
2023/07/10 13:48:48;;;;;;;;;;;22.40;57.10;;;;;;5079377;28;19978;-58
2023/07/10 13:51:16;;;;;;;;;;;22.30;57.30;;;;;;5077626;28;19933;-58
2023/07/10 13:53:43;;;;;;;;;;;22.30;57.10;;;;;;5079440;28;19924;-60
2023/07/10 13:56:19;;;;;;;;;;;22.30;57.20;;;;;;5084127;28;19974;-61
2023/07/10 13:58:46;;;;;;;;;;;22.20;57.20;;;;;;5077185;28;19928;-59
2023/07/10 14:01:13;;;;;;;;;;;22.10;57.80;;;;;;5079871;28;19983;-60
2023/07/10 14:03:41;;;;;;;;;;;22.10;60.50;;;;;;5076741;28;20404;-59
2023/07/10 14:06:30;;;;;;;;;;;22.20;64.30;;;;;;5076514;28;19928;-59
2023/07/10 14:08:59;;;;;;;;;;;22.50;66.10;;;;;;5077700;28;19932;-59
2023/07/10 14:11:28;;;;;;;;;;;22.90;67.20;;;;;;5076348;28;19924;-58
2023/07/10 14:13:55;;;;;;;;;;;23.30;67.50;;;;;;5076574;28;19960;-58
2023/07/10 14:16:24;;;;;;;;;;;23.60;67.90;;;;;;5078571;28;20411;-59
2023/07/10 14:18:52;;;;;;;;;;;23.90;67.10;;;;;;5078235;28;19931;-60
2023/07/10 14:21:19;;;;;;;;;;;24.20;67.20;;;;;;5075148;28;20449;-59
2023/07/10 14:23:46;;;;;;;;;;;24.50;67.70;;;;;;5072283;28;19924;-59
2023/07/10 14:26:16;;;;;;;;;;;24.70;68.40;;;;;;5078816;28;19924;-59
2023/07/10 14:28:44;;;;;;;;;;;24.90;68.70;;;;;;5080734;28;19932;-60
2023/07/10 14:31:11;;;;;;;;;;;25.00;68.60;;;;;;5084940;28;19951;-60